Ana Sayfa
METAR-TAF:

METAR-TAF

Havaalanları :

Warren Field Airport

Washington, Kuzey Carolina, Amerika Birleşik Devletleri

Enlem: 35-34-14N, Boylam: 077-02-59W, yükseklik: 12 m

Güncel hava durumu gözlemi

Rapor saat 21:55 UTC de 1 saat ve 4 dakika önce yapıldı.
Rüzgar batı/güneybatıdan 7 kt
Sıcaklık 31°C
Nem 52%
Basınç 1014 hPa
Görüş mesafesi: 16.1 km
Açık gökyüzü

METAR: KOCW 112155Z AUTO 25007KT 10SM CLR 31/20 A2995 RMK AO2 T03110196

Saat: 18:59 (22:59 UTC)


TAF: eksik

4.000'den fazla havaalanı için hava durumu gözlemleri ve tahminleri (METAR ve TAF raporları).

Kullanılabilir istasyonlar harita üzerinde sarı ve kırmızı noktalarla gösterilir.

İstasyonun adını görmek için fareyi noktanın üzerinde gezdirin.

Sonrasında hava gözlem ve tahminlerini görmek için tıklayın.

Haritayı değiştirmek için: yaklaştırmak için siyah artı işaretli yeşil düğmeye ve uzaklaştırmak için de eksi işaretli düğmeye hızla tıklayın; bitişik haritalar için yeşil okları kullanın.


METAR-TAF: